Time;durP1;ratioP1;P1;durP2;ratioP2;P2;SDS_P1;SDS_P2;PMS_P1;PMS_P2;Temp;Humidity;BMP_temperature;BMP_pressure;BME280_temperature;BME280_humidity;BME280_pressure;Samples;Min_cycle;Max_cycle;Signal;HPM_P1;HPM_P2
2023/08/20 00:01:26;;;;;;;16.30;14.00;;;;;;;25.40;62.70;100899.70;107816;1259;72723;-77
2023/08/20 00:03:55;;;;;;;14.30;12.90;;;;;;;25.39;62.82;100900.83;107832;1258;73557;-77
2023/08/20 00:06:22;;;;;;;14.60;13.10;;;;;;;25.38;62.84;100903.14;107906;1255;61245;-75
2023/08/20 00:08:50;;;;;;;13.60;12.10;;;;;;;25.35;62.80;100903.60;107985;1256;61279;-76
2023/08/20 00:11:17;;;;;;;14.40;13.00;;;;;;;25.28;62.74;100902.79;107820;1257;74958;-75
2023/08/20 00:13:44;;;;;;;14.00;12.80;;;;;;;25.19;62.94;100900.45;107834;1259;72714;-76
2023/08/20 00:16:11;;;;;;;15.70;12.60;;;;;;;25.15;62.98;100901.64;107839;1259;71890;-75
2023/08/20 00:18:39;;;;;;;13.60;12.30;;;;;;;25.12;63.03;100895.07;107796;1256;61981;-74
2023/08/20 00:21:07;;;;;;;14.40;12.40;;;;;;;25.09;63.02;100893.09;107895;1255;61069;-75
2023/08/20 00:23:35;;;;;;;15.30;12.90;;;;;;;25.08;63.09;100893.69;107938;1255;74480;-76
2023/08/20 00:26:02;;;;;;;15.00;13.00;;;;;;;25.05;63.09;100893.69;107865;1256;72855;-77
2023/08/20 00:28:30;;;;;;;14.40;13.00;;;;;;;25.02;63.05;100895.11;107649;1259;72735;-76
2023/08/20 00:30:57;;;;;;;15.50;12.60;;;;;;;25.00;63.17;100897.43;107961;1256;61102;-75
2023/08/20 00:33:24;;;;;;;14.80;13.10;;;;;;;24.97;63.16;100894.53;107911;1256;61119;-75
2023/08/20 00:35:51;;;;;;;14.70;13.20;;;;;;;24.93;63.24;100898.33;107672;1256;74955;-76
2023/08/20 00:38:18;;;;;;;14.90;13.40;;;;;;;24.89;63.37;100899.56;107903;1256;72491;-75
2023/08/20 00:40:44;;;;;;;15.60;14.00;;;;;;;24.89;63.23;100897.36;107913;1255;73976;-77
2023/08/20 00:43:11;;;;;;;15.20;13.80;;;;;;;24.91;63.18;100900.16;107690;1254;62087;-75
2023/08/20 00:45:42;;;;;;;14.80;13.30;;;;;;;24.91;63.31;100900.79;107723;1256;61126;-75
2023/08/20 00:48:11;;;;;;;14.70;13.20;;;;;;;24.94;63.36;100903.73;107477;1256;73463;-75
2023/08/20 00:50:39;;;;;;;14.70;13.10;;;;;;;24.96;63.32;100900.91;107695;1259;72757;-74
2023/08/20 00:53:07;;;;;;;14.80;13.30;;;;;;;24.94;63.27;100899.30;107901;1255;72701;-75
2023/08/20 00:55:34;;;;;;;14.50;12.60;;;;;;;24.90;63.39;100894.58;107766;1258;61368;-75
2023/08/20 00:58:01;;;;;;;15.00;13.40;;;;;;;24.90;63.51;100896.38;107825;1256;61141;-75
2023/08/20 01:00:28;;;;;;;15.10;13.60;;;;;;;24.91;63.64;100899.44;107906;1256;74669;-75
2023/08/20 01:02:55;;;;;;;14.50;13.00;;;;;;;24.88;63.46;100895.31;107699;1256;72874;-75
2023/08/20 01:05:22;;;;;;;14.40;12.90;;;;;;;24.85;63.46;100891.78;107922;1259;72669;-76
2023/08/20 01:08:06;;;;;;;13.80;12.40;;;;;;;24.82;63.59;100888.33;107548;1256;62098;-76
2023/08/20 01:10:47;;;;;;;13.70;12.40;;;;;;;24.73;63.61;100887.14;107877;1256;61087;-74
2023/08/20 01:13:14;;;;;;;14.20;12.70;;;;;;;24.68;63.92;100883.09;107469;1256;74504;-75
2023/08/20 01:15:40;;;;;;;13.60;12.30;;;;;;;24.65;63.83;100880.42;107557;1256;71829;-74
2023/08/20 01:18:08;;;;;;;13.10;11.80;;;;;;;24.62;63.80;100880.57;107988;1254;72815;-75
2023/08/20 01:21:06;;;;;;;13.00;11.70;;;;;;;24.62;63.90;100882.20;107942;1256;61711;-74
2023/08/20 01:24:05;;;;;;;13.10;11.70;;;;;;;24.60;63.82;100880.34;107732;1256;61084;-75
2023/08/20 01:26:36;;;;;;;12.90;11.60;;;;;;;24.62;63.74;100879.23;107886;1256;74591;-75
2023/08/20 01:29:03;;;;;;;15.90;12.40;;;;;;;24.61;63.47;100877.40;107997;1259;72647;-75
2023/08/20 01:31:30;;;;;;;12.80;11.50;;;;;;;24.60;63.47;100877.99;107695;1262;73041;-76
2023/08/20 01:33:58;;;;;;;12.40;11.10;;;;;;;24.57;63.53;100873.86;107694;1256;61549;-75
2023/08/20 01:36:27;;;;;;;12.40;11.30;;;;;;;24.59;63.30;100877.02;107717;1262;60109;-74
2023/08/20 01:38:54;;;;;;;13.10;11.70;;;;;;;24.59;63.42;100872.67;107800;1254;74687;-75
2023/08/20 01:41:21;;;;;;;12.80;11.60;;;;;;;24.61;63.45;100873.17;107989;1256;72583;-74
2023/08/20 01:43:47;;;;;;;12.60;11.30;;;;;;;24.61;63.45;100878.08;107859;1259;72468;-73
2023/08/20 01:46:14;;;;;;;12.40;11.30;;;;;;;24.59;63.51;100876.16;108008;1255;61813;-74
2023/08/20 01:48:41;;;;;;;12.90;11.50;;;;;;;24.58;63.43;100876.23;107869;1256;61768;-75
2023/08/20 01:51:09;;;;;;;13.50;12.20;;;;;;;24.60;63.43;100871.60;107991;1254;74610;-75
2023/08/20 01:53:36;;;;;;;13.40;12.10;;;;;;;24.61;63.51;100871.01;107909;1255;72898;-75
2023/08/20 01:56:03;;;;;;;12.80;11.50;;;;;;;24.63;63.40;100874.35;107981;1259;71741;-74
2023/08/20 01:58:32;;;;;;;12.50;11.20;;;;;;;24.63;63.48;100876.77;107642;1256;61070;-75
2023/08/20 02:00:59;;;;;;;13.00;11.70;;;;;;;24.62;63.36;100871.36;107714;1256;61279;-74
2023/08/20 02:03:25;;;;;;;12.40;11.20;;;;;;;24.59;63.29;100875.46;107916;1256;74343;-74
2023/08/20 02:05:52;;;;;;;13.00;11.80;;;;;;;24.56;63.41;100874.77;107908;1255;72568;-75
2023/08/20 02:08:20;;;;;;;12.80;11.50;;;;;;;24.55;63.43;100879.20;107845;1254;72712;-75
2023/08/20 02:10:47;;;;;;;13.00;11.70;;;;;;;24.55;63.63;100881.92;107896;1256;61946;-75
2023/08/20 02:13:14;;;;;;;12.70;11.40;;;;;;;24.55;63.56;100879.35;107586;1256;60500;-76
2023/08/20 02:15:40;;;;;;;13.80;12.50;;;;;;;24.51;63.71;100879.91;107731;1256;74342;-76
2023/08/20 02:18:07;;;;;;;12.50;11.30;;;;;;;24.49;63.93;100882.98;107900;1254;73026;-76
2023/08/20 02:20:35;;;;;;;12.90;11.60;;;;;;;24.49;64.07;100883.30;107840;1256;72520;-73
2023/08/20 02:23:01;;;;;;;12.70;11.50;;;;;;;24.47;63.96;100883.07;107784;1254;61886;-74
2023/08/20 02:25:28;;;;;;;12.90;11.60;;;;;;;24.45;64.08;100881.91;107682;1256;61195;-74
2023/08/20 02:27:55;;;;;;;11.10;10.10;;;;;;;24.44;63.96;100882.57;107906;1256;74462;-74
2023/08/20 02:30:22;;;;;;;11.60;10.40;;;;;;;24.34;64.09;100884.66;107948;1256;72602;-75
2023/08/20 02:32:52;;;;;;;11.30;10.30;;;;;;;24.27;64.20;100883.98;107691;1260;72517;-75
2023/08/20 02:35:19;;;;;;;11.10;9.90;;;;;;;24.20;64.16;100885.84;107938;1254;61986;-75
2023/08/20 02:37:50;;;;;;;11.10;10.00;;;;;;;24.12;64.57;100886.63;107843;1256;61212;-75
2023/08/20 02:40:17;;;;;;;10.50;9.60;;;;;;;24.13;64.78;100884.45;107912;1256;74681;-75
2023/08/20 02:42:44;;;;;;;10.30;9.20;;;;;;;24.14;64.87;100886.66;107703;1256;70908;-74
2023/08/20 02:45:11;;;;;;;10.80;9.70;;;;;;;24.12;64.85;100891.30;107857;1256;72564;-76
2023/08/20 02:47:38;;;;;;;11.50;10.20;;;;;;;24.07;65.06;100888.71;107899;1256;61168;-74
2023/08/20 02:50:05;;;;;;;11.20;10.10;;;;;;;24.03;65.01;100888.05;107922;1255;61126;-75
2023/08/20 02:52:33;;;;;;;11.30;10.20;;;;;;;24.00;65.24;100882.80;107765;1255;73808;-74
2023/08/20 02:55:00;;;;;;;11.00;9.90;;;;;;;24.01;65.20;100884.48;108014;1256;72740;-75
2023/08/20 02:57:27;;;;;;;11.00;9.90;;;;;;;24.00;65.25;100885.05;107948;1256;72493;-75
2023/08/20 02:59:53;;;;;;;11.40;10.30;;;;;;;23.96;65.28;100880.50;107947;1256;61417;-75
2023/08/20 03:02:21;;;;;;;11.20;9.90;;;;;;;23.94;65.38;100882.44;107801;1256;61190;-75
2023/08/20 03:04:48;;;;;;;11.10;9.50;;;;;;;23.93;65.46;100881.55;107654;1256;73743;-75
2023/08/20 03:07:15;;;;;;;10.90;9.80;;;;;;;23.93;65.62;100883.27;107824;1255;71435;-75
2023/08/20 03:09:42;;;;;;;10.70;9.60;;;;;;;24.00;65.56;100885.06;107862;1254;72696;-75
2023/08/20 03:12:09;;;;;;;10.50;9.00;;;;;;;24.00;65.46;100883.41;107860;1256;62148;-77
2023/08/20 03:14:36;;;;;;;10.40;9.40;;;;;;;24.02;65.37;100886.94;107895;1259;60283;-76
2023/08/20 03:17:03;;;;;;;9.50;8.60;;;;;;;24.02;65.25;100887.77;107732;1255;73273;-76
2023/08/20 03:19:33;;;;;;;9.40;8.50;;;;;;;24.05;65.21;100884.44;107717;1257;72667;-75
2023/08/20 03:21:59;;;;;;;9.70;8.70;;;;;;;24.05;65.17;100886.86;107807;1256;72539;-75
2023/08/20 03:24:26;;;;;;;10.30;9.30;;;;;;;24.07;65.13;100889.51;107904;1258;61995;-75
2023/08/20 03:26:53;;;;;;;10.60;9.50;;;;;;;24.09;65.14;100886.36;107857;1256;61353;-74
2023/08/20 03:29:20;;;;;;;10.80;9.70;;;;;;;24.12;65.14;100886.08;107734;1257;74525;-75
2023/08/20 03:31:47;;;;;;;11.40;9.60;;;;;;;24.18;65.17;100886.78;107656;1255;72607;-75
2023/08/20 03:34:13;;;;;;;10.00;9.10;;;;;;;24.24;65.09;100882.95;107813;1256;72564;-74
2023/08/20 03:36:41;;;;;;;10.40;9.30;;;;;;;24.31;64.87;100883.40;107717;1255;62099;-75
2023/08/20 03:39:08;;;;;;;11.00;10.00;;;;;;;24.34;65.01;100880.39;107913;1255;61238;-76
2023/08/20 03:41:35;;;;;;;10.90;9.80;;;;;;;24.39;65.06;100882.23;107914;1254;73047;-75
2023/08/20 03:44:02;;;;;;;11.20;10.10;;;;;;;24.48;64.93;100888.16;107684;1255;72583;-76
2023/08/20 03:46:29;;;;;;;11.00;10.00;;;;;;;24.50;65.06;100886.30;107736;1256;73257;-75
2023/08/20 03:48:57;;;;;;;11.10;9.40;;;;;;;24.60;64.82;100888.77;107694;1256;61849;-75
2023/08/20 03:51:24;;;;;;;13.20;11.60;;;;;;;24.66;64.80;100882.95;107641;1256;61157;-75
2023/08/20 03:53:51;;;;;;;12.80;11.30;;;;;;;24.76;64.92;100887.23;107898;1256;74695;-74
2023/08/20 03:56:18;;;;;;;11.80;10.60;;;;;;;24.86;65.00;100882.29;107963;1256;73116;-76
2023/08/20 03:58:45;;;;;;;11.70;10.50;;;;;;;24.94;64.83;100878.63;107621;1255;72723;-76
2023/08/20 04:01:12;;;;;;;12.60;11.30;;;;;;;25.01;64.78;100877.97;107950;1256;61721;-76
2023/08/20 04:03:39;;;;;;;13.10;11.60;;;;;;;25.09;64.76;100876.77;107748;1256;61149;-77
2023/08/20 04:06:07;;;;;;;12.90;11.50;;;;;;;25.10;64.84;100875.65;107971;1254;74769;-76
2023/08/20 04:08:33;;;;;;;13.10;11.90;;;;;;;25.15;64.81;100873.38;107897;1256;73336;-76
2023/08/20 04:11:02;;;;;;;13.70;12.40;;;;;;;25.26;64.73;100875.09;107899;1257;72766;-75
2023/08/20 04:13:29;;;;;;;14.80;13.30;;;;;;;25.35;64.74;100871.83;107858;1256;61940;-75
2023/08/20 04:15:56;;;;;;;15.30;13.60;;;;;;;25.45;64.64;100871.16;108032;1256;61102;-74
2023/08/20 04:18:23;;;;;;;14.70;13.40;;;;;;;25.56;64.55;100866.81;107920;1257;74654;-74
2023/08/20 04:20:51;;;;;;;14.90;13.40;;;;;;;25.63;64.41;100863.17;107929;1256;72769;-76
2023/08/20 04:23:19;;;;;;;14.10;12.90;;;;;;;25.74;64.19;100862.99;107578;1263;72688;-75
2023/08/20 04:25:46;;;;;;;14.60;13.10;;;;;;;25.86;64.06;100863.95;107767;1257;61097;-75
2023/08/20 04:28:14;;;;;;;14.60;13.10;;;;;;;25.97;63.85;100863.13;108201;1255;61093;-76
2023/08/20 04:30:41;;;;;;;16.10;14.50;;;;;;;26.08;63.50;100861.20;107678;1255;74708;-76
2023/08/20 04:33:08;;;;;;;15.70;14.10;;;;;;;26.20;63.23;100859.98;107728;1256;72606;-76
2023/08/20 04:35:35;;;;;;;15.90;14.30;;;;;;;26.29;63.11;100861.04;107766;1256;72693;-76
2023/08/20 04:38:03;;;;;;;16.20;14.60;;;;;;;26.39;62.82;100854.40;107805;1256;62033;-77
2023/08/20 04:40:30;;;;;;;16.10;14.40;;;;;;;26.51;62.68;100856.19;107738;1255;60245;-75
2023/08/20 04:42:57;;;;;;;15.70;14.10;;;;;;;26.58;62.24;100848.59;107917;1256;74461;-77
2023/08/20 04:45:23;;;;;;;15.70;14.20;;;;;;;26.62;61.95;100846.88;108075;1256;72400;-76
2023/08/20 04:47:50;;;;;;;15.40;13.90;;;;;;;26.72;61.85;100847.30;107990;1254;72478;-76
2023/08/20 04:50:17;;;;;;;15.20;13.60;;;;;;;26.82;61.67;100842.45;107669;1255;61745;-76
2023/08/20 04:52:48;;;;;;;15.00;13.50;;;;;;;26.94;61.62;100840.88;107650;1254;61363;-75
2023/08/20 04:55:15;;;;;;;13.50;12.10;;;;;;;27.07;61.42;100842.84;107740;1256;74746;-76
2023/08/20 04:57:43;;;;;;;14.30;12.90;;;;;;;27.21;61.16;100843.78;107783;1257;72513;-76
2023/08/20 05:00:12;;;;;;;13.60;12.10;;;;;;;27.36;60.81;100847.81;108010;1256;71449;-76
2023/08/20 05:03:03;;;;;;;13.30;12.10;;;;;;;27.48;60.14;100849.84;107910;1256;61825;-76
2023/08/20 05:05:31;;;;;;;12.90;11.70;;;;;;;27.58;59.85;100853.23;107633;1259;61083;-76
2023/08/20 05:07:58;;;;;;;12.60;11.50;;;;;;;27.71;59.39;100847.25;107543;1256;73201;-75
2023/08/20 05:10:24;;;;;;;12.40;11.20;;;;;;;27.84;58.79;100845.85;107929;1257;73268;-84
2023/08/20 05:12:51;;;;;;;11.70;10.50;;;;;;;28.00;58.10;100847.44;107884;1256;71443;-77
2023/08/20 05:15:18;;;;;;;13.50;11.50;;;;;;;28.15;57.79;100847.04;107756;1256;63530;-77
2023/08/20 05:17:45;;;;;;;12.30;10.00;;;;;;;28.26;57.13;100849.01;107611;1262;61312;-76
2023/08/20 05:20:12;;;;;;;12.70;11.40;;;;;;;28.33;56.78;100848.33;107742;1261;78814;-76
2023/08/20 05:22:41;;;;;;;14.10;12.10;;;;;;;28.39;56.37;100849.76;107690;1256;64712;-76
2023/08/20 05:25:09;;;;;;;13.70;11.80;;;;;;;28.45;56.20;100845.38;107942;1256;63933;-76
2023/08/20 05:27:36;;;;;;;13.00;11.70;;;;;;;28.53;56.19;100845.33;107968;1256;61279;-77
2023/08/20 05:30:08;;;;;;;13.30;12.00;;;;;;;28.61;55.84;100847.23;107784;1255;61135;-77
2023/08/20 05:32:35;;;;;;;13.30;12.00;;;;;;;28.71;55.63;100846.42;107953;1256;66036;-75
2023/08/20 05:35:03;;;;;;;13.00;11.80;;;;;;;28.80;55.45;100844.25;107772;1256;64014;-75
2023/08/20 05:37:31;;;;;;;14.00;11.70;;;;;;;28.88;54.94;100843.33;107814;1256;72642;-76
2023/08/20 05:39:58;;;;;;;13.40;12.00;;;;;;;28.95;54.42;100844.35;107880;1256;61247;-76
2023/08/20 05:42:25;;;;;;;13.20;11.70;;;;;;;29.04;54.20;100837.89;107710;1256;61143;-76
2023/08/20 05:44:56;;;;;;;11.50;10.30;;;;;;;29.13;54.08;100837.05;107757;1257;66100;-77
2023/08/20 05:47:26;;;;;;;12.20;11.00;;;;;;;29.23;53.80;100837.38;107876;1254;64178;-77
2023/08/20 05:49:54;;;;;;;14.10;10.30;;;;;;;29.33;53.71;100833.00;107709;1256;64037;-76
2023/08/20 05:52:21;;;;;;;12.80;10.90;;;;;;;29.43;53.24;100831.98;108002;1255;61112;-76
2023/08/20 05:54:48;;;;;;;12.80;11.10;;;;;;;29.53;52.90;100829.58;107934;1257;61235;-76
2023/08/20 05:57:15;;;;;;;11.90;10.80;;;;;;;29.64;52.49;100825.75;107904;1256;65841;-76
2023/08/20 05:59:42;;;;;;;12.10;10.90;;;;;;;29.79;52.44;100825.02;107916;1255;64202;-77
2023/08/20 06:02:09;;;;;;;11.20;10.00;;;;;;;29.94;52.07;100821.35;107748;1257;62645;-77
2023/08/20 06:04:36;;;;;;;11.90;10.00;;;;;;;30.07;51.91;100821.77;107942;1255;61070;-76
2023/08/20 06:07:02;;;;;;;11.30;10.20;;;;;;;30.21;51.31;100818.96;108025;1256;61227;-72
2023/08/20 06:09:29;;;;;;;11.60;10.40;;;;;;;30.36;50.77;100819.59;107940;1257;66036;-72
2023/08/20 06:11:56;;;;;;;11.10;10.10;;;;;;;30.48;50.48;100818.40;107903;1256;62826;-73
2023/08/20 06:14:23;;;;;;;11.40;10.10;;;;;;;30.59;50.19;100815.94;107888;1256;64162;-74
2023/08/20 06:16:50;;;;;;;12.20;10.20;;;;;;;30.69;50.24;100817.86;107935;1256;61151;-75
2023/08/20 06:19:17;;;;;;;11.10;9.60;;;;;;;30.74;49.83;100817.73;107703;1255;61164;-74
2023/08/20 06:21:44;;;;;;;10.20;9.30;;;;;;;30.80;49.52;100818.64;107761;1256;75390;-74
2023/08/20 06:24:11;;;;;;;12.40;8.90;;;;;;;30.86;49.28;100817.80;107897;1255;64683;-74
2023/08/20 06:26:38;;;;;;;12.10;9.20;;;;;;;30.93;48.42;100822.86;107787;1255;64079;-73
2023/08/20 06:29:05;;;;;;;9.00;8.20;;;;;;;31.01;47.29;100824.38;107927;1256;59779;-74
2023/08/20 06:31:32;;;;;;;9.80;8.70;;;;;;;31.11;46.84;100825.43;107982;1254;59224;-74
2023/08/20 06:33:59;;;;;;;10.80;9.50;;;;;;;31.16;47.01;100821.98;107915;1255;67600;-74
2023/08/20 06:36:26;;;;;;;10.70;9.20;;;;;;;31.20;46.59;100822.76;107877;1255;66307;-73
2023/08/20 06:38:52;;;;;;;10.40;9.40;;;;;;;31.28;46.70;100817.26;107857;1255;63845;-74
2023/08/20 06:41:19;;;;;;;10.80;8.80;;;;;;;31.38;46.81;100814.63;107997;1256;61244;-72
2023/08/20 06:43:46;;;;;;;10.10;9.20;;;;;;;31.47;46.42;100815.02;107864;1255;61123;-73
2023/08/20 06:46:13;;;;;;;10.50;9.40;;;;;;;31.56;46.38;100812.26;107844;1256;65835;-72
2023/08/20 06:48:40;;;;;;;10.40;9.30;;;;;;;31.65;46.16;100809.26;107915;1256;64005;-73
2023/08/20 06:51:18;;;;;;;10.10;8.40;;;;;;;31.73;45.83;100810.91;107975;1254;63748;-74
2023/08/20 06:53:45;;;;;;;9.30;8.30;;;;;;;31.84;45.10;100814.54;107953;1255;58954;-73
2023/08/20 06:56:12;;;;;;;9.70;8.70;;;;;;;31.92;45.30;100816.13;107968;1259;61196;-74
2023/08/20 06:58:40;;;;;;;11.60;8.90;;;;;;;32.01;44.47;100818.08;107931;1256;64758;-73
2023/08/20 07:01:07;;;;;;;10.10;9.10;;;;;;;32.11;44.07;100816.17;107913;1257;63998;-76
2023/08/20 07:03:35;;;;;;;11.30;10.20;;;;;;;32.18;44.84;100816.31;107869;1259;64413;-74
2023/08/20 07:06:02;;;;;;;10.70;9.70;;;;;;;32.19;45.53;100816.55;107853;1254;61125;-73
2023/08/20 07:08:29;;;;;;;9.50;8.50;;;;;;;32.25;45.55;100810.92;107998;1254;61389;-74
2023/08/20 07:10:56;;;;;;;9.20;8.30;;;;;;;32.32;45.27;100814.94;107945;1256;65925;-73
2023/08/20 07:13:23;;;;;;;10.10;8.40;;;;;;;32.42;45.20;100814.68;107857;1257;64115;-74
2023/08/20 07:15:50;;;;;;;9.50;8.50;;;;;;;32.54;44.98;100813.48;107948;1256;64047;-74
2023/08/20 07:18:18;;;;;;;10.40;8.30;;;;;;;32.63;44.30;100813.20;107883;1256;59894;-75
2023/08/20 07:20:45;;;;;;;11.50;8.20;;;;;;;32.74;44.15;100814.64;107936;1256;61337;-74
2023/08/20 07:23:12;;;;;;;10.10;7.70;;;;;;;32.85;43.61;100812.84;107696;1257;66102;-74
2023/08/20 07:25:40;;;;;;;9.40;7.10;;;;;;;32.94;42.95;100816.84;107816;1256;64157;-73
2023/08/20 07:28:08;;;;;;;8.40;7.20;;;;;;;33.03;42.54;100816.17;107904;1257;64138;-74
2023/08/20 07:30:35;;;;;;;9.10;6.40;;;;;;;33.09;41.78;100808.08;107774;1256;61192;-72
2023/08/20 07:33:02;;;;;;;8.10;7.30;;;;;;;33.15;41.25;100808.11;107814;1256;61112;-74
2023/08/20 07:35:32;;;;;;;7.30;6.00;;;;;;;33.24;40.25;100807.02;107756;1256;66035;-74
2023/08/20 07:37:59;;;;;;;7.20;5.90;;;;;;;33.25;39.69;100815.95;107551;1261;64202;-75
2023/08/20 07:40:26;;;;;;;8.40;6.40;;;;;;;33.30;39.71;100815.20;107733;1259;64159;-73
2023/08/20 07:42:54;;;;;;;7.50;5.70;;;;;;;33.37;39.76;100816.02;107786;1255;61214;-74
2023/08/20 07:45:21;;;;;;;7.00;5.60;;;;;;;33.45;39.00;100818.89;107831;1259;61118;-78
2023/08/20 07:47:48;;;;;;;7.20;5.30;;;;;;;33.52;38.47;100816.41;107735;1255;64717;-77
2023/08/20 07:50:19;;;;;;;6.80;5.50;;;;;;;33.61;38.12;100811.42;107723;1256;64021;-76
2023/08/20 07:52:46;;;;;;;;;;;;;;;33.71;37.91;100813.33;107621;1256;62903;-76
2023/08/20 07:55:13;;;;;;;7.70;5.30;;;;;;;33.80;37.78;100811.56;107655;1256;61123;-77
2023/08/20 07:57:40;;;;;;;7.10;5.70;;;;;;;33.91;37.38;100810.84;107701;1256;61247;-78
2023/08/20 08:00:08;;;;;;;6.50;5.50;;;;;;;34.00;36.99;100807.12;107831;1256;66439;-77
2023/08/20 08:02:37;;;;;;;6.50;5.20;;;;;;;34.07;36.22;100806.73;107873;1256;63945;-78
2023/08/20 08:05:05;;;;;;;8.80;5.80;;;;;;;34.13;35.90;100805.48;107735;1255;63961;-77
2023/08/20 08:07:32;;;;;;;9.80;7.20;;;;;;;34.21;36.38;100798.91;107919;1256;61129;-76
2023/08/20 08:09:59;;;;;;;9.00;7.10;;;;;;;34.34;36.12;100794.09;107788;1256;59978;-76
2023/08/20 08:12:26;;;;;;;9.50;6.90;;;;;;;34.48;35.96;100790.28;107806;1257;65833;-76
2023/08/20 08:14:53;;;;;;;9.60;6.30;;;;;;;34.63;35.81;100788.76;107843;1256;64205;-76
2023/08/20 08:17:20;;;;;;;10.00;7.40;;;;;;;34.77;35.54;100788.25;107724;1255;63853;-77
2023/08/20 08:19:47;;;;;;;9.80;5.90;;;;;;;34.92;34.60;100788.60;107667;1256;61176;-78
2023/08/20 08:22:14;;;;;;;11.60;6.50;;;;;;;35.05;34.41;100789.85;107755;1256;61227;-78
2023/08/20 08:24:42;;;;;;;7.90;5.50;;;;;;;35.18;34.31;100789.19;107693;1256;65697;-77
2023/08/20 08:27:09;;;;;;;7.30;5.20;;;;;;;35.28;33.19;100784.02;107670;1259;63788;-78
2023/08/20 08:29:36;;;;;;;8.80;5.50;;;;;;;35.34;32.82;100785.35;107742;1256;63890;-77
2023/08/20 08:32:03;;;;;;;7.90;5.40;;;;;;;35.43;32.81;100785.14;107794;1256;61124;-78
2023/08/20 08:34:30;;;;;;;8.40;4.90;;;;;;;35.53;32.24;100782.52;107748;1255;61232;-77
2023/08/20 08:36:57;;;;;;;7.30;5.20;;;;;;;35.63;31.84;100782.52;107698;1256;65849;-77
2023/08/20 08:39:24;;;;;;;9.00;4.90;;;;;;;35.73;31.65;100779.16;107728;1257;63863;-76
2023/08/20 08:41:51;;;;;;;8.00;4.60;;;;;;;35.81;31.08;100776.09;107815;1257;65229;-77
2023/08/20 08:44:18;;;;;;;7.00;4.60;;;;;;;35.84;31.11;100773.33;107686;1256;61192;-76
2023/08/20 08:46:45;;;;;;;10.90;4.70;;;;;;;35.89;31.14;100772.42;107742;1255;60833;-77
2023/08/20 08:49:12;;;;;;;5.80;4.30;;;;;;;35.99;30.80;100769.63;107461;1262;66174;-77
2023/08/20 08:51:44;;;;;;;6.20;4.40;;;;;;;36.09;30.96;100769.86;107728;1255;63020;-77
2023/08/20 08:54:13;;;;;;;8.70;4.60;;;;;;;36.17;30.93;100772.31;107590;1255;64062;-76
2023/08/20 08:56:40;;;;;;;9.50;5.30;;;;;;;36.25;31.08;100772.79;107780;1259;61104;-78
2023/08/20 08:59:07;;;;;;;5.80;4.20;;;;;;;36.31;29.96;100773.52;107695;1256;60613;-77
2023/08/20 09:01:40;;;;;;;7.80;4.30;;;;;;;36.36;29.52;100768.66;107464;1256;64811;-79
2023/08/20 09:04:07;;;;;;;6.10;4.00;;;;;;;36.46;29.42;100767.84;107599;1256;63264;-78
2023/08/20 09:06:47;;;;;;;7.00;4.30;;;;;;;36.58;29.17;100771.17;107749;1258;64226;-77
2023/08/20 09:09:16;;;;;;;5.50;4.40;;;;;;;36.68;29.67;100771.98;107835;1257;59136;-77
2023/08/20 09:11:43;;;;;;;5.70;4.40;;;;;;;36.80;29.85;100775.98;107799;1256;60472;-75
2023/08/20 09:14:24;;;;;;;5.80;4.10;;;;;;;36.93;29.33;100776.04;107696;1255;65948;-79
2023/08/20 09:16:55;;;;;;;5.70;4.00;;;;;;;37.02;28.01;100773.45;107731;1256;63944;-77
2023/08/20 09:19:22;;;;;;;7.40;4.50;;;;;;;36.99;27.23;100777.66;107707;1256;64010;-76
2023/08/20 09:21:49;;;;;;;8.00;4.60;;;;;;;36.82;27.59;100774.83;107690;1255;61305;-78
2023/08/20 09:24:16;;;;;;;9.00;4.60;;;;;;;36.78;28.13;100771.12;107686;1256;61108;-79
2023/08/20 09:26:46;;;;;;;5.10;3.80;;;;;;;36.84;28.20;100767.00;107765;1257;67415;-77
2023/08/20 09:29:13;;;;;;;7.00;4.10;;;;;;;36.98;27.87;100769.71;107718;1256;64039;-79
2023/08/20 09:31:39;;;;;;;6.10;4.00;;;;;;;37.15;27.56;100769.33;107834;1256;62557;-77
2023/08/20 09:34:06;;;;;;;6.80;4.30;;;;;;;37.33;27.36;100770.08;107807;1256;61171;-77
2023/08/20 09:36:34;;;;;;;7.20;4.20;;;;;;;37.39;27.24;100764.19;107700;1262;60281;-77
2023/08/20 09:39:02;;;;;;;6.50;4.10;;;;;;;37.44;26.51;100761.67;107981;1256;65932;-76
2023/08/20 09:41:30;;;;;;;9.70;4.80;;;;;;;37.42;26.12;100761.74;107765;1256;64124;-76
2023/08/20 09:43:57;;;;;;;5.60;4.20;;;;;;;37.31;26.92;100759.04;107802;1257;64125;-78
2023/08/20 09:46:26;;;;;;;7.00;4.60;;;;;;;37.40;27.04;100760.03;107801;1256;61324;-77
2023/08/20 09:48:55;;;;;;;6.50;4.20;;;;;;;37.54;27.22;100761.36;107937;1257;60040;-78
2023/08/20 09:51:27;;;;;;;5.30;4.10;;;;;;;37.67;26.66;100756.16;107787;1259;65831;-78
2023/08/20 09:54:06;;;;;;;8.10;4.50;;;;;;;37.60;26.56;100753.95;107832;1256;62505;-78
2023/08/20 09:56:36;;;;;;;6.10;4.40;;;;;;;37.52;27.08;100750.58;107869;1257;64314;-77
2023/08/20 09:59:03;;;;;;;6.50;4.30;;;;;;;37.54;27.09;100753.31;107637;1256;61270;-77
2023/08/20 10:01:30;;;;;;;5.90;4.50;;;;;;;37.57;26.82;100751.71;107769;1256;61075;-76
2023/08/20 10:03:57;;;;;;;6.20;4.20;;;;;;;37.64;26.48;100751.64;107671;1256;65903;-76
2023/08/20 10:06:25;;;;;;;6.90;4.50;;;;;;;37.64;27.18;100751.95;107818;1259;64209;-78
2023/08/20 10:08:51;;;;;;;6.30;4.30;;;;;;;37.66;27.16;100749.31;107657;1256;64089;-78
2023/08/20 10:11:18;;;;;;;5.80;4.50;;;;;;;37.67;26.89;100747.89;107579;1256;61165;-78
2023/08/20 10:13:45;;;;;;;5.30;4.10;;;;;;;37.68;27.12;100747.06;107572;1256;61118;-77
2023/08/20 10:16:13;;;;;;;6.90;4.50;;;;;;;37.59;27.52;100746.66;107588;1260;66618;-78
2023/08/20 10:18:40;;;;;;;5.90;4.10;;;;;;;37.45;28.04;100744.14;107795;1255;64006;-77
2023/08/20 10:21:09;;;;;;;5.80;4.80;;;;;;;37.39;27.78;100742.21;107672;1256;62931;-77
2023/08/20 10:23:39;;;;;;;7.90;4.50;;;;;;;37.31;27.83;100741.30;107603;1260;59033;-76
2023/08/20 10:26:10;;;;;;;5.30;4.30;;;;;;;37.32;27.96;100736.09;107632;1257;61463;-79
2023/08/20 10:28:37;;;;;;;5.10;4.40;;;;;;;37.44;28.32;100737.41;107724;1256;64766;-77
2023/08/20 10:31:08;;;;;;;8.90;5.20;;;;;;;37.61;27.49;100736.51;107773;1257;62572;-77
2023/08/20 10:33:36;;;;;;;6.00;4.80;;;;;;;37.68;27.57;100734.47;107640;1256;64088;-77
2023/08/20 10:36:07;;;;;;;6.90;4.70;;;;;;;37.76;27.44;100730.81;107742;1259;61246;-77
2023/08/20 10:38:37;;;;;;;5.80;4.10;;;;;;;37.70;27.31;100722.07;107899;1256;59311;-78
2023/08/20 10:41:08;;;;;;;6.40;4.40;;;;;;;37.68;27.68;100720.70;107873;1256;68592;-76
2023/08/20 10:43:37;;;;;;;6.70;4.90;;;;;;;37.62;27.48;100719.83;107749;1257;64649;-74
2023/08/20 10:46:10;;;;;;;7.70;4.70;;;;;;;37.59;27.21;100714.42;107873;1257;72494;-74
2023/08/20 10:48:38;;;;;;;6.20;4.90;;;;;;;37.46;26.89;100715.47;107892;1258;61106;-77
2023/08/20 10:51:12;;;;;;;6.80;4.60;;;;;;;37.32;27.41;100712.07;107717;1256;61136;-76
2023/08/20 10:53:41;;;;;;;5.30;4.80;;;;;;;37.31;27.64;100707.64;107823;1256;66152;-77
2023/08/20 10:56:16;;;;;;;6.30;4.50;;;;;;;37.28;27.34;100705.02;107580;1263;65510;-77
2023/08/20 10:58:46;;;;;;;6.70;4.10;;;;;;;37.21;27.52;100700.51;107865;1259;64215;-74
2023/08/20 11:01:21;;;;;;;6.10;4.50;;;;;;;37.22;27.87;100698.80;107787;1256;61236;-74
2023/08/20 11:03:49;;;;;;;6.10;4.60;;;;;;;37.36;28.11;100696.69;107753;1257;61317;-76
2023/08/20 11:06:19;;;;;;;4.90;4.10;;;;;;;37.49;28.35;100692.84;107580;1257;65977;-73
2023/08/20 11:08:47;;;;;;;4.90;4.40;;;;;;;37.68;27.32;100692.90;107782;1256;64383;-75
2023/08/20 11:11:14;;;;;;;6.50;4.70;;;;;;;37.83;27.01;100692.07;107832;1256;64056;-73
2023/08/20 11:13:42;;;;;;;6.40;4.60;;;;;;;37.91;26.79;100690.20;107676;1257;61140;-83